Time;durP1;ratioP1;P1;durP2;ratioP2;P2;SDS_P1;SDS_P2;PMS_P1;PMS_P2;Temp;Humidity;BMP_temperature;BMP_pressure;BME280_temperature;BME280_humidity;BME280_pressure;Samples;Min_cycle;Max_cycle;Signal;HPM_P1;HPM_P2
2022/03/26 00:00:11;;;;;;;0.20;0.20;;;;;;;21.33;32.94;102654.22;5128782;28;20622;-33
2022/03/26 00:02:37;;;;;;;0.20;0.20;;;;;;;21.34;33.03;102655.06;5127522;28;20082;-37
2022/03/26 00:05:04;;;;;;;0.20;0.20;;;;;;;21.32;32.98;102657.22;5128890;28;20058;-33
2022/03/26 00:07:29;;;;;;;0.13;0.13;;;;;;;21.33;32.96;102656.13;5109724;28;20071;-36
2022/03/26 00:09:55;;;;;;;0.10;0.10;;;;;;;21.31;32.83;102653.59;5128441;28;20485;-36
2022/03/26 00:12:21;;;;;;;0.10;0.10;;;;;;;21.32;33.01;102652.53;5127778;28;20520;-33
2022/03/26 00:14:47;;;;;;;0.10;0.10;;;;;;;21.31;33.07;102648.03;5108529;28;20390;-36
2022/03/26 00:17:12;;;;;;;0.10;0.10;;;;;;;21.31;33.00;102653.59;5129918;28;20088;-33
2022/03/26 00:19:38;;;;;;;0.10;0.10;;;;;;;21.32;32.81;102652.53;5129304;28;20047;-33
2022/03/26 00:22:04;;;;;;;0.10;0.10;;;;;;;21.31;33.04;102650.81;5127331;28;20444;-35
2022/03/26 00:24:30;;;;;;;0.10;0.10;;;;;;;21.30;32.92;102649.97;5107677;28;20043;-33
2022/03/26 00:26:56;;;;;;;0.20;0.20;;;;;;;21.30;32.99;102663.84;5127342;28;20465;-36
2022/03/26 00:29:21;;;;;;;0.10;0.10;;;;;;;21.31;33.10;102653.59;5127297;28;20096;-37
2022/03/26 00:31:47;;;;;;;0.10;0.10;;;;;;;21.30;32.90;102655.53;5128477;28;20091;-36
2022/03/26 00:34:13;;;;;;;0.10;0.10;;;;;;;21.30;32.94;102657.47;5127001;28;20043;-33
2022/03/26 00:36:39;;;;;;;0.10;0.10;;;;;;;21.30;32.81;102651.91;5127259;28;20412;-33
2022/03/26 00:39:05;;;;;;;0.10;0.10;;;;;;;21.30;33.09;102649.16;5127795;28;20466;-35
2022/03/26 00:41:32;;;;;;;0.10;0.10;;;;;;;21.28;33.02;102641.06;5127473;28;20035;-33
2022/03/26 00:43:57;;;;;;;0.10;0.10;;;;;;;21.29;33.07;102645.53;5126128;28;20098;-36
2022/03/26 06:56:00;;;;;;;0.20;0.20;;;;;;;21.05;33.57;102729.91;5122462;27;20424;-36
2022/03/26 06:58:25;;;;;;;0.20;0.20;;;;;;;21.05;33.49;102733.50;5098809;28;20142;-35
2022/03/26 07:00:51;;;;;;;0.20;0.20;;;;;;;21.06;33.62;102742.66;5132678;27;20043;-33
2022/03/26 07:03:18;;;;;;;0.20;0.20;;;;;;;21.07;33.34;102732.41;5129422;28;20089;-35
2022/03/26 07:05:44;;;;;;;0.20;0.20;;;;;;;21.06;33.55;102739.88;5111946;28;20054;-36
2022/03/26 07:08:09;;;;;;;0.10;0.10;;;;;;;21.05;33.47;102739.06;5109778;28;20055;-33
2022/03/26 07:10:37;;;;;;;0.10;0.10;;;;;;;21.05;33.61;102750.13;5130367;27;20047;-35
2022/03/26 07:13:03;;;;;;;0.30;0.30;;;;;;;21.06;33.74;102748.19;5131540;28;20123;-35
2022/03/26 07:15:31;;;;;;;0.10;0.10;;;;;;;21.05;33.49;102755.69;5112527;28;20088;-35
2022/03/26 07:17:57;;;;;;;0.10;0.10;;;;;;;21.05;33.47;102754.84;5129271;28;20148;-34
2022/03/26 07:20:24;;;;;;;0.10;0.10;;;;;;;21.04;33.63;102759.53;5134083;27;20085;-34
2022/03/26 07:22:49;;;;;;;0.20;0.20;;;;;;;21.05;33.78;102763.97;5131093;27;20051;-33
2022/03/26 07:25:15;;;;;;;0.20;0.20;;;;;;;21.06;33.46;102762.06;5129056;28;20095;-33
2022/03/26 07:27:41;;;;;;;0.20;0.20;;;;;;;21.06;33.64;102764.81;5129212;27;20134;-36
2022/03/26 07:30:08;;;;;;;0.20;0.20;;;;;;;21.04;33.64;102761.47;5129265;27;20039;-34
2022/03/26 07:32:34;;;;;;;0.20;0.20;;;;;;;21.05;33.40;102761.22;5129306;28;20497;-33
2022/03/26 07:35:00;;;;;;;0.20;0.20;;;;;;;21.04;33.72;102756.78;5130091;27;20068;-36
2022/03/26 07:37:25;;;;;;;0.10;0.10;;;;;;;21.05;33.63;102765.91;5110702;27;20043;-34
2022/03/26 07:39:51;;;;;;;0.20;0.20;;;;;;;21.04;33.45;102767.84;5110905;28;20040;-35
2022/03/26 07:42:17;;;;;;;0.20;0.20;;;;;;;21.05;33.38;102765.91;5130310;28;20038;-34
2022/03/26 07:44:42;;;;;;;0.20;0.20;;;;;;;21.04;33.30;102767.84;5129901;28;20051;-33
2022/03/26 07:47:08;;;;;;;0.10;0.10;;;;;;;21.04;33.67;102772.56;5131708;27;20042;-33
2022/03/26 07:49:34;;;;;;;0.20;0.20;;;;;;;21.04;33.71;102764.25;5127781;27;20043;-33
2022/03/26 07:52:00;;;;;;;0.20;0.20;;;;;;;21.02;33.51;102767.25;5131376;27;20229;-35
2022/03/26 07:54:26;;;;;;;0.10;0.10;;;;;;;21.03;33.63;102766.19;5129004;28;20082;-38
2022/03/26 07:56:52;;;;;;;0.20;0.20;;;;;;;21.02;33.54;102761.69;5129005;27;20043;-35
2022/03/26 07:59:17;;;;;;;0.20;0.20;;;;;;;21.03;33.43;102757.88;5128427;27;20046;-38
2022/03/26 08:01:44;;;;;;;0.20;0.20;;;;;;;21.03;33.50;102763.41;5110577;28;20047;-36
2022/03/26 08:04:10;;;;;;;0.20;0.20;;;;;;;21.04;33.46;102767.84;5129515;27;20051;-33
2022/03/26 08:06:35;;;;;;;0.10;0.10;;;;;;;21.04;33.63;102764.25;5128931;27;20115;-33
2022/03/26 08:09:02;;;;;;;0.10;0.10;;;;;;;21.03;33.57;102762.56;5129255;27;20043;-32
2022/03/26 08:11:27;;;;;;;0.20;0.20;;;;;;;21.02;33.41;102760.88;5129693;27;20070;-33
2022/03/26 08:13:53;;;;;;;0.20;0.20;;;;;;;21.02;33.49;102770.00;5129515;28;20054;-35
2022/03/26 08:16:19;;;;;;;0.10;0.10;;;;;;;21.03;33.48;102762.56;5129932;28;20045;-33
2022/03/26 08:18:45;;;;;;;0.10;0.10;;;;;;;21.03;33.42;102768.94;5127375;27;20186;-33
2022/03/26 08:21:11;;;;;;;0.20;0.20;;;;;;;21.04;33.75;102764.25;5129500;27;20086;-33
2022/03/26 08:23:37;;;;;;;0.20;0.20;;;;;;;21.01;33.55;102768.34;5112224;28;20057;-34
2022/03/26 08:26:34;;;;;;;0.20;0.20;;;;;;;21.02;33.64;102772.78;5129355;28;20528;-35
2022/03/26 08:28:50;;;;;;;0.20;0.20;;;;;;;21.01;33.53;102767.50;5110887;28;20071;-33
2022/03/26 08:31:17;;;;;;;0.20;0.20;;;;;;;21.03;33.51;102768.13;5125686;27;20074;-34
2022/03/26 08:33:43;;;;;;;0.10;0.10;;;;;;;21.03;33.44;102770.88;5127248;27;20077;-34
2022/03/26 08:36:10;;;;;;;0.20;0.20;;;;;;;21.01;33.50;102773.88;5115349;28;20079;-34
2022/03/26 08:38:36;;;;;;;0.20;0.20;;;;;;;21.02;33.61;102769.19;5123274;27;20471;-33
2022/03/26 08:41:03;;;;;;;0.20;0.20;;;;;;;21.01;33.55;102765.56;5116207;28;20066;-37
2022/03/26 08:43:29;;;;;;;0.20;0.20;;;;;;;21.01;33.53;102771.13;5110015;28;20541;-35
2022/03/26 08:45:55;;;;;;;0.20;0.20;;;;;;;21.01;33.73;102768.34;5126316;27;20060;-34
2022/03/26 08:48:20;;;;;;;0.20;0.20;;;;;;;21.03;33.63;102770.88;5127384;27;20047;-34
2022/03/26 08:50:47;;;;;;;0.10;0.10;;;;;;;21.01;33.68;102782.19;5108351;27;20040;-36
2022/03/26 08:53:13;;;;;;;0.20;0.20;;;;;;;21.01;33.71;102781.34;5129250;28;20080;-35
2022/03/26 08:55:39;;;;;;;0.20;0.20;;;;;;;21.00;33.54;102771.38;5130846;27;20108;-35
2022/03/26 08:58:04;;;;;;;0.20;0.20;;;;;;;21.01;33.68;102776.66;5128278;28;20415;-32
2022/03/26 09:00:30;;;;;;;0.20;0.20;;;;;;;21.01;33.66;102778.59;5127089;27;20284;-36
2022/03/26 09:02:56;;;;;;;0.20;0.20;;;;;;;21.00;33.71;102780.53;5128518;27;20043;-35
2022/03/26 09:05:23;;;;;;;0.10;0.10;;;;;;;21.02;33.50;102783.03;5110250;28;20130;-35
2022/03/26 09:07:50;;;;;;;0.20;0.20;;;;;;;21.00;33.89;102780.53;5129250;27;20422;-32
2022/03/26 09:10:15;;;;;;;0.10;0.10;;;;;;;21.01;33.67;102775.81;5091051;28;20081;-33
2022/03/26 09:12:41;;;;;;;0.20;0.20;;;;;;;21.00;33.71;102777.75;5109782;28;20043;-36
2022/03/26 09:15:08;;;;;;;0.20;0.20;;;;;;;21.00;33.54;102780.53;5128032;27;20386;-34
2022/03/26 09:17:34;;;;;;;0.20;0.20;;;;;;;20.99;33.53;102781.63;5110018;28;20082;-34
2022/03/26 09:20:00;;;;;;;0.10;0.10;;;;;;;21.01;33.76;102781.34;5127054;27;20293;-34
2022/03/26 09:22:26;;;;;;;0.17;0.17;;;;;;;20.99;33.56;102778.84;5128825;28;20058;-37
2022/03/26 09:24:52;;;;;;;0.10;0.10;;;;;;;20.99;33.51;102778.84;5129844;27;20050;-36
2022/03/26 09:27:18;;;;;;;0.20;0.20;;;;;;;20.99;33.67;102786.31;5128307;27;20081;-34
2022/03/26 09:29:45;;;;;;;0.20;0.20;;;;;;;20.99;33.68;102780.78;5126718;27;20477;-33
2022/03/26 09:32:11;;;;;;;0.17;0.17;;;;;;;20.99;33.69;102780.78;5131480;27;20047;-33
2022/03/26 09:34:37;;;;;;;0.20;0.20;;;;;;;20.99;33.65;102786.31;5112925;28;20043;-36
2022/03/26 09:37:03;;;;;;;0.20;0.20;;;;;;;20.98;33.37;102779.94;5130873;27;20444;-35
2022/03/26 09:39:29;;;;;;;0.20;0.20;;;;;;;20.99;33.78;102778.84;5109991;27;20074;-36
2022/03/26 09:41:55;;;;;;;0.20;0.20;;;;;;;20.99;33.38;102778.84;5132446;27;20077;-33
2022/03/26 09:44:22;;;;;;;0.10;0.10;;;;;;;20.99;33.50;102778.00;5131581;27;20143;-35
2022/03/26 09:46:48;;;;;;;0.20;0.20;;;;;;;20.99;33.53;102780.78;5122693;28;20066;-35
2022/03/26 09:49:14;;;;;;;0.10;0.10;;;;;;;20.99;33.70;102775.25;5128428;28;20046;-36
2022/03/26 09:51:40;;;;;;;0.20;0.20;;;;;;;20.98;33.76;102782.72;5098147;28;20185;-34
2022/03/26 09:54:07;;;;;;;0.20;0.20;;;;;;;20.99;33.57;102781.63;5096774;28;20085;-35
2022/03/26 09:56:34;;;;;;;0.20;0.20;;;;;;;20.98;33.61;102779.06;5131805;27;20077;-33
2022/03/26 09:59:00;;;;;;;0.20;0.20;;;;;;;20.98;33.40;102770.75;5112971;28;20119;-34
2022/03/26 10:01:26;;;;;;;0.10;0.10;;;;;;;20.98;33.75;102774.41;5130860;27;20081;-35
2022/03/26 10:04:13;;;;;;;0.15;0.15;;;;;;;20.98;33.49;102776.31;5122423;28;20039;-35
2022/03/26 10:06:48;;;;;;;0.10;0.10;;;;;;;20.97;33.57;102778.25;5113704;27;20058;-37
2022/03/26 10:09:34;;;;;;;0.20;0.20;;;;;;;20.97;33.62;102782.94;5111167;28;20047;-34
2022/03/26 10:12:04;;;;;;;0.20;0.20;;;;;;;20.97;33.75;102777.41;5115305;28;20074;-35
2022/03/26 10:14:47;;;;;;;0.20;0.20;;;;;;;20.99;33.70;102780.78;5109019;28;20068;-36
2022/03/26 10:17:22;;;;;;;0.10;0.10;;;;;;;20.99;33.63;102775.25;5094398;28;20047;-34
2022/03/26 10:19:50;;;;;;;0.10;0.10;;;;;;;20.96;33.61;102775.72;5094137;28;20137;-36
2022/03/26 10:22:25;;;;;;;0.20;0.20;;;;;;;20.96;33.69;102776.56;5132258;27;20528;-36
2022/03/26 10:24:52;;;;;;;0.10;0.10;;;;;;;20.97;33.53;102775.47;5098452;28;20466;-34
2022/03/26 10:27:17;;;;;;;0.10;0.10;;;;;;;20.96;33.93;102767.41;5112321;28;20051;-35
2022/03/26 10:29:59;;;;;;;0.10;0.10;;;;;;;20.96;33.53;102768.25;5129349;28;20150;-37
2022/03/26 10:33:00;;;;;;;0.20;0.20;;;;;;;20.97;33.92;102760.78;5121707;28;20078;-33
2022/03/26 10:35:22;;;;;;;0.20;0.20;;;;;;;20.96;33.58;102757.16;5100508;28;20064;-33
2022/03/26 10:37:55;;;;;;;0.20;0.20;;;;;;;20.96;33.71;102754.41;5099747;28;20533;-35
2022/03/26 10:40:39;;;;;;;0.20;0.20;;;;;;;20.96;33.78;102753.56;5129717;27;20100;-36
2022/03/26 10:43:09;;;;;;;0.45;0.43;;;;;;;20.95;33.59;102749.97;5125359;27;20047;-33
2022/03/26 10:45:45;;;;;;;0.20;0.20;;;;;;;20.95;33.60;102749.97;5111757;28;20051;-36
2022/03/26 10:48:11;;;;;;;0.20;0.20;;;;;;;20.95;33.64;102746.34;5094596;28;20081;-36
2022/03/26 10:50:37;;;;;;;0.20;0.20;;;;;;;20.96;33.72;102739.72;5132770;27;20405;-35
2022/03/26 10:53:06;;;;;;;0.20;0.20;;;;;;;20.96;33.52;102751.63;5129451;28;20073;-33
2022/03/26 10:55:32;;;;;;;0.13;0.13;;;;;;;20.96;33.71;102740.56;5107461;27;20498;-34
2022/03/26 10:57:59;;;;;;;0.20;0.20;;;;;;;20.96;33.77;102746.09;5113055;28;20039;-37
2022/03/26 11:00:25;;;;;;;0.20;0.20;;;;;;;20.95;33.58;102740.81;5133690;27;20042;-36
2022/03/26 11:02:56;;;;;;;0.20;0.20;;;;;;;20.95;33.75;102738.88;5111659;27;20054;-33
2022/03/26 11:05:23;;;;;;;0.20;0.20;;;;;;;20.95;33.76;102732.50;5131211;28;20062;-33
2022/03/26 11:07:50;;;;;;;0.20;0.20;;;;;;;20.95;33.87;102733.34;5129052;27;20047;-37
2022/03/26 11:10:16;;;;;;;0.20;0.20;;;;;;;20.96;33.87;102728.63;5111269;27;20177;-37
2022/03/26 11:12:45;;;;;;;0.20;0.20;;;;;;;20.96;33.91;102734.19;5125392;28;20046;-33
2022/03/26 11:15:14;;;;;;;0.20;0.20;;;;;;;20.95;33.66;102733.34;5105291;27;20161;-36
2022/03/26 11:18:08;;;;;;;0.20;0.20;;;;;;;20.96;33.88;102745.25;5130342;28;20070;-37
2022/03/26 11:20:44;;;;;;;0.20;0.20;;;;;;;20.96;33.80;102734.19;5097127;27;20073;-38
2022/03/26 11:23:20;;;;;;;0.20;0.20;;;;;;;20.95;33.87;102729.75;5130358;28;20096;-38
2022/03/26 11:26:15;;;;;;;0.20;0.20;;;;;;;20.95;33.44;102727.81;5130644;27;20074;-37
2022/03/26 11:28:50;;;;;;;0.20;0.20;;;;;;;20.95;33.70;102738.88;5130116;28;20082;-35
2022/03/26 11:31:24;;;;;;;0.30;0.30;;;;;;;20.94;33.57;102728.91;5127788;27;20077;-36
2022/03/26 11:34:01;;;;;;;0.20;0.20;;;;;;;20.95;33.61;102727.81;5129314;27;20043;-33
2022/03/26 11:36:27;;;;;;;0.20;0.20;;;;;;;20.94;33.69;102725.25;5111522;28;20071;-33
2022/03/26 11:38:55;;;;;;;0.20;0.20;;;;;;;20.96;33.70;102725.88;5113734;28;20252;-34
2022/03/26 11:41:36;;;;;;;0.10;0.10;;;;;;;20.95;33.78;102724.19;5108861;28;20504;-35
2022/03/26 11:44:03;;;;;;;0.20;0.20;;;;;;;20.95;33.78;102722.25;5128488;28;20549;-35
2022/03/26 11:52:26;;;;;;;0.20;0.20;;;;;;;20.94;33.62;102716.94;5101902;27;20481;-34
2022/03/26 11:55:16;;;;;;;0.20;0.20;;;;;;;20.93;33.76;102718.88;5128381;27;20486;-33
2022/03/26 11:57:42;;;;;;;0.20;0.20;;;;;;;20.93;33.75;102718.06;5097590;28;20046;-34
2022/03/26 12:00:09;;;;;;;0.20;0.20;;;;;;;20.94;33.51;102706.75;5117500;27;20096;-37
2022/03/26 12:02:35;;;;;;;0.20;0.20;;;;;;;20.93;33.78;102705.03;5127229;28;20058;-36
2022/03/26 12:08:16;;;;;;;0.20;0.20;;;;;;;20.93;33.78;102702.28;5112322;28;20071;-33
2022/03/26 12:10:43;;;;;;;0.20;0.20;;;;;;;20.93;33.67;102698.66;5111409;27;20067;-34
2022/03/26 12:13:08;;;;;;;0.20;0.20;;;;;;;20.94;33.72;102694.78;5116390;28;20078;-35
2022/03/26 12:15:37;;;;;;;;;;;;;;;20.93;33.87;102690.34;5110935;28;20054;-33
2022/03/26 12:18:12;;;;;;;0.20;0.20;;;;;;;20.92;33.57;102703.38;5121234;28;20339;-37
2022/03/26 12:20:42;;;;;;;0.20;0.20;;;;;;;20.93;33.65;102691.19;5119437;27;20191;-35
2022/03/26 12:23:14;;;;;;;0.20;0.20;;;;;;;20.93;33.82;102693.13;5094353;28;20081;-34
2022/03/26 12:25:46;;;;;;;0.20;0.20;;;;;;;20.93;33.75;102682.88;5129888;27;20159;-36
2022/03/26 12:28:15;;;;;;;0.20;0.20;;;;;;;20.93;33.67;102682.88;5111601;27;20466;-36
2022/03/26 12:30:45;;;;;;;0.20;0.20;;;;;;;20.93;33.56;102679.28;5109626;28;20084;-37
2022/03/26 12:33:12;;;;;;;0.20;0.20;;;;;;;20.93;33.81;102674.56;5109023;28;20288;-38
2022/03/26 12:35:38;;;;;;;0.13;0.13;;;;;;;20.94;33.80;102675.41;5091103;27;20138;-33
2022/03/26 12:38:05;;;;;;;0.20;0.20;;;;;;;20.95;33.69;102668.81;5125000;27;20485;-33
2022/03/26 12:40:32;;;;;;;0.20;0.20;;;;;;;20.94;33.86;102664.34;5126939;27;20063;-33
2022/03/26 12:42:58;;;;;;;0.10;0.10;;;;;;;20.93;33.62;102662.66;5129087;28;20074;-33
2022/03/26 12:45:23;;;;;;;0.20;0.20;;;;;;;20.93;33.62;102655.19;5126374;27;20057;-38
2022/03/26 12:47:49;;;;;;;0.20;0.20;;;;;;;20.93;33.67;102660.72;5120153;28;20043;-35
2022/03/26 12:50:23;;;;;;;0.13;0.13;;;;;;;20.93;33.81;102652.41;5114163;27;20046;-34
2022/03/26 12:52:49;;;;;;;0.10;0.10;;;;;;;20.94;33.79;102658.78;5109544;28;20046;-35
2022/03/26 12:55:18;;;;;;;0.13;0.13;;;;;;;20.93;33.61;102655.19;5127022;28;20682;-36
2022/03/26 13:00:33;;;;;;;0.20;0.20;;;;;;;20.93;33.89;102649.66;5104120;28;20126;-32
2022/03/26 13:03:09;;;;;;;0.20;0.20;;;;;;;20.93;33.58;102646.88;5125598;28;20055;-36
2022/03/26 13:05:37;;;;;;;0.20;0.20;;;;;;;20.92;33.68;102653.50;5108798;28;20051;-37
2022/03/26 13:08:03;;;;;;;0.10;0.10;;;;;;;20.92;33.98;102642.44;5109088;27;20073;-34
2022/03/26 13:10:30;;;;;;;0.20;0.20;;;;;;;20.93;33.57;102648.81;5109910;28;20100;-33
2022/03/26 13:12:56;;;;;;;0.20;0.20;;;;;;;20.92;33.64;102642.44;5109491;28;20082;-34
2022/03/26 13:15:22;;;;;;;0.20;0.20;;;;;;;20.92;33.82;102636.06;5107281;28;20050;-37
2022/03/26 13:17:47;;;;;;;0.20;0.20;;;;;;;20.92;33.91;102636.06;5107150;28;20039;-36
2022/03/26 13:20:32;;;;;;;0.20;0.20;;;;;;;20.93;33.46;102633.03;5104624;28;20039;-35
2022/03/26 13:23:02;;;;;;;0.20;0.20;;;;;;;20.92;33.55;102630.53;5089420;28;20126;-35
2022/03/26 13:25:34;;;;;;;0.20;0.20;;;;;;;20.93;33.72;102632.19;5100810;28;20577;-32
2022/03/26 13:28:16;;;;;;;0.20;0.20;;;;;;;20.92;33.69;102627.75;5106820;28;20427;-35
2022/03/26 13:30:44;;;;;;;0.20;0.20;;;;;;;20.93;33.64;102621.13;5085995;28;20075;-37
2022/03/26 13:33:12;;;;;;;0.20;0.20;;;;;;;20.92;33.58;102622.22;5093023;28;20079;-33
2022/03/26 13:35:39;;;;;;;0.20;0.20;;;;;;;20.93;33.70;102621.13;5099152;28;20526;-33
2022/03/26 13:38:10;;;;;;;0.20;0.20;;;;;;;20.92;33.63;102623.06;5084141;28;20136;-35
2022/03/26 13:40:36;;;;;;;0.20;0.20;;;;;;;20.92;33.76;102614.75;5106471;28;20758;-35
2022/03/26 13:43:02;;;;;;;0.20;0.20;;;;;;;20.91;33.52;102621.38;5089873;28;20082;-36
2022/03/26 13:45:29;;;;;;;0.20;0.20;;;;;;;20.93;33.72;102618.34;5109806;28;20145;-33
2022/03/26 13:47:56;;;;;;;0.10;0.10;;;;;;;20.92;33.81;102623.06;5089077;28;20044;-34
2022/03/26 13:50:22;;;;;;;0.20;0.20;;;;;;;20.93;33.86;102618.34;5104393;28;20078;-34
2022/03/26 13:52:50;;;;;;;0.20;0.20;;;;;;;20.92;34.01;102613.91;5106590;28;20512;-36
2022/03/26 13:55:30;;;;;;;0.20;0.20;;;;;;;20.92;33.62;102611.97;5088599;28;20562;-32
2022/03/26 13:57:59;;;;;;;0.20;0.20;;;;;;;20.92;33.63;102611.97;5086851;28;20104;-37
2022/03/26 14:00:27;;;;;;;0.17;0.17;;;;;;;20.92;33.91;102605.59;5105943;28;20058;-34
2022/03/26 14:02:53;;;;;;;0.20;0.20;;;;;;;20.92;33.87;102606.44;5107290;28;20063;-34
2022/03/26 14:05:26;;;;;;;0.10;0.10;;;;;;;20.93;33.85;102598.97;5090091;28;20051;-35
2022/03/26 14:07:57;;;;;;;0.20;0.20;;;;;;;20.92;33.70;102598.13;5104670;28;20126;-35
2022/03/26 14:10:31;;;;;;;0.15;0.15;;;;;;;20.91;33.85;102599.22;5083497;28;20090;-36
2022/03/26 14:12:57;;;;;;;0.20;0.20;;;;;;;20.93;33.60;102594.25;5088140;28;20043;-33
2022/03/26 14:15:22;;;;;;;0.20;0.20;;;;;;;20.92;34.00;102584.28;5107333;28;20493;-35
2022/03/26 14:17:48;;;;;;;0.20;0.20;;;;;;;20.91;33.79;102582.59;5102688;28;20044;-33
2022/03/26 14:20:14;;;;;;;0.20;0.20;;;;;;;20.92;33.80;102597.28;5100567;28;20048;-36
2022/03/26 14:22:39;;;;;;;0.20;0.20;;;;;;;20.91;34.10;102588.16;5106568;28;20040;-36
2022/03/26 14:25:06;;;;;;;0.20;0.20;;;;;;;20.91;33.80;102588.16;5109028;28;20469;-35
2022/03/26 14:27:31;;;;;;;0.20;0.20;;;;;;;20.92;33.70;102589.81;5110766;28;20050;-36
2022/03/26 14:29:57;;;;;;;0.20;0.20;;;;;;;20.92;33.79;102583.44;5095457;28;20048;-34
2022/03/26 14:32:23;;;;;;;0.20;0.20;;;;;;;20.91;33.41;102585.38;5109460;28;20060;-34
2022/03/26 14:34:48;;;;;;;0.20;0.20;;;;;;;20.91;33.85;102571.53;5095264;28;20482;-37
2022/03/26 14:37:14;;;;;;;0.20;0.20;;;;;;;20.91;33.67;102562.38;5106906;28;20066;-32
2022/03/26 14:39:40;;;;;;;0.20;0.20;;;;;;;20.90;33.57;102572.63;5094317;28;20044;-32
2022/03/26 14:42:05;;;;;;;0.20;0.20;;;;;;;20.91;33.74;102562.38;5074704;28;20051;-35
2022/03/26 14:44:31;;;;;;;0.20;0.20;;;;;;;20.92;33.73;102569.59;5101089;28;20184;-34
2022/03/26 14:46:57;;;;;;;0.17;0.17;;;;;;;20.91;33.91;102565.16;5110504;28;20043;-36
2022/03/26 14:49:22;;;;;;;0.10;0.10;;;;;;;20.91;33.78;102568.75;5106092;28;21332;-35
2022/03/26 14:51:48;;;;;;;0.10;0.10;;;;;;;20.90;33.87;102558.78;5111770;28;20186;-37
2022/03/26 14:54:14;;;;;;;0.20;0.20;;;;;;;20.91;33.66;102559.63;5107423;28;20379;-32
2022/03/26 14:56:41;;;;;;;0.10;0.10;;;;;;;20.90;33.87;102553.25;5110824;28;20048;-36
2022/03/26 14:59:07;;;;;;;0.20;0.20;;;;;;;20.90;33.82;102550.47;5101011;28;20071;-34
2022/03/26 15:01:33;;;;;;;0.20;0.20;;;;;;;20.91;33.69;102554.06;5092109;28;20075;-32
2022/03/26 15:03:59;;;;;;;0.20;0.20;;;;;;;20.91;33.66;102557.69;5109155;28;20052;-36
2022/03/26 15:06:25;;;;;;;0.20;0.20;;;;;;;20.92;33.67;102555.75;5109239;28;20050;-36
2022/03/26 15:08:51;;;;;;;0.10;0.10;;;;;;;20.92;33.93;102552.97;5100872;28;20051;-34
2022/03/26 15:11:16;;;;;;;0.20;0.20;;;;;;;20.91;33.61;102552.16;5107394;28;20100;-35
2022/03/26 15:13:42;;;;;;;0.10;0.10;;;;;;;20.91;33.89;102548.53;5109075;28;20422;-32
2022/03/26 15:16:08;;;;;;;0.10;0.10;;;;;;;20.91;33.66;102549.38;5110015;28;20043;-37
2022/03/26 15:18:33;;;;;;;0.20;0.20;;;;;;;20.91;33.57;102551.31;5109524;28;20046;-34
2022/03/26 15:20:59;;;;;;;0.20;0.20;;;;;;;20.91;33.85;102560.44;5107055;28;20339;-33
2022/03/26 15:23:26;;;;;;;0.10;0.10;;;;;;;20.92;33.73;102552.97;5108573;28;20043;-35
2022/03/26 15:25:51;;;;;;;0.20;0.20;;;;;;;20.91;33.77;102551.31;5108972;28;20054;-33
2022/03/26 15:28:17;;;;;;;0.17;0.17;;;;;;;20.90;33.73;102542.16;5108355;28;20056;-38
2022/03/26 15:30:43;;;;;;;0.13;0.13;;;;;;;20.90;33.97;102547.72;5108021;28;20058;-33
2022/03/26 15:33:08;;;;;;;0.20;0.20;;;;;;;20.91;33.88;102543.00;5109666;28;20048;-34
2022/03/26 15:35:34;;;;;;;0.20;0.20;;;;;;;20.91;33.77;102552.16;5110392;28;20047;-35
2022/03/26 15:38:00;;;;;;;0.20;0.20;;;;;;;20.91;33.78;102543.84;5109168;28;20047;-35
2022/03/26 15:40:26;;;;;;;0.20;0.20;;;;;;;20.91;33.66;102540.22;5107329;28;20043;-35
2022/03/26 15:42:51;;;;;;;0.10;0.10;;;;;;;20.91;33.88;102543.00;5098925;28;20509;-37
2022/03/26 15:45:17;;;;;;;0.20;0.20;;;;;;;20.91;33.66;102543.84;5103597;28;20048;-35
2022/03/26 15:47:58;;;;;;;0.20;0.20;;;;;;;20.90;33.65;102536.63;5093513;28;20044;-35
2022/03/26 15:50:24;;;;;;;0.20;0.20;;;;;;;20.91;33.38;102543.00;5091715;28;20563;-36
2022/03/26 15:52:49;;;;;;;0.20;0.20;;;;;;;20.90;33.80;102533.88;5097029;28;20464;-34
2022/03/26 15:55:15;;;;;;;0.20;0.20;;;;;;;20.90;33.66;102539.41;5103825;28;20432;-34
2022/03/26 15:57:41;;;;;;;0.20;0.20;;;;;;;20.91;33.82;102534.69;5108464;28;20362;-36
2022/03/26 16:00:07;;;;;;;0.20;0.20;;;;;;;20.90;33.71;102533.88;5108636;28;20383;-35
2022/03/26 16:02:32;;;;;;;0.20;0.20;;;;;;;20.90;33.87;102544.09;5111847;28;20054;-34
2022/03/26 16:04:59;;;;;;;0.20;0.20;;;;;;;20.90;33.87;102533.03;5110888;28;20079;-35
2022/03/26 16:07:26;;;;;;;0.10;0.10;;;;;;;20.89;33.64;102532.16;5109366;28;20370;-38
2022/03/26 16:09:52;;;;;;;0.20;0.20;;;;;;;20.90;33.92;102533.88;5107088;28;20079;-36
2022/03/26 16:12:18;;;;;;;0.20;0.20;;;;;;;20.90;33.79;102535.78;5106178;28;20075;-34
2022/03/26 16:14:44;;;;;;;0.20;0.20;;;;;;;20.91;33.81;102543.00;5101216;28;20052;-35
2022/03/26 16:17:09;;;;;;;0.20;0.20;;;;;;;20.90;33.95;102544.94;5109697;28;20483;-34
2022/03/26 16:19:36;;;;;;;0.10;0.10;;;;;;;20.90;33.87;102544.94;5097784;28;20043;-36
2022/03/26 16:22:02;;;;;;;0.17;0.17;;;;;;;20.90;33.81;102544.94;5086818;28;20471;-34
2022/03/26 16:24:27;;;;;;;0.20;0.20;;;;;;;20.90;33.79;102550.47;5110718;28;20213;-34
2022/03/26 16:26:53;;;;;;;0.20;0.20;;;;;;;20.90;33.97;102544.94;5106361;28;20052;-34
2022/03/26 16:29:19;;;;;;;0.20;0.20;;;;;;;20.90;33.76;102544.09;5109723;28;20441;-35
2022/03/26 16:31:44;;;;;;;0.20;0.20;;;;;;;20.90;33.69;102550.47;5095556;28;20126;-34
2022/03/26 16:34:11;;;;;;;0.20;0.20;;;;;;;20.90;33.82;102546.88;5107285;28;20039;-35
2022/03/26 16:36:37;;;;;;;0.20;0.20;;;;;;;20.90;33.64;102544.09;5106850;28;20479;-37
2022/03/26 16:39:03;;;;;;;0.20;0.20;;;;;;;20.90;33.72;102544.09;5108723;28;20130;-35
2022/03/26 16:41:29;;;;;;;0.20;0.20;;;;;;;20.90;33.77;102539.41;5105216;28;20078;-34
2022/03/26 16:43:54;;;;;;;0.20;0.20;;;;;;;20.91;33.70;102545.78;5091836;28;20413;-32
2022/03/26 16:46:20;;;;;;;0.20;0.20;;;;;;;20.91;33.73;102537.47;5091492;28;20043;-33
2022/03/26 16:48:46;;;;;;;0.20;0.20;;;;;;;20.91;33.90;102541.06;5089282;28;20277;-34
2022/03/26 16:51:13;;;;;;;0.20;0.20;;;;;;;20.91;33.77;102545.78;5112569;28;20069;-35
2022/03/26 16:53:42;;;;;;;0.20;0.20;;;;;;;20.91;33.91;102540.22;5109203;28;20103;-35
2022/03/26 16:56:08;;;;;;;0.20;0.20;;;;;;;20.90;33.91;102544.09;5108067;28;20182;-36
2022/03/26 16:58:34;;;;;;;0.20;0.20;;;;;;;20.90;33.66;102544.09;5076354;28;20047;-35
2022/03/26 17:00:59;;;;;;;0.20;0.20;;;;;;;20.91;33.73;102548.53;5107250;28;20047;-35
2022/03/26 17:03:25;;;;;;;0.10;0.10;;;;;;;20.89;34.06;102543.22;5106791;28;20044;-33
2022/03/26 17:05:54;;;;;;;0.20;0.20;;;;;;;20.90;33.87;102547.72;5109235;28;20473;-33
2022/03/26 17:08:19;;;;;;;0.20;0.20;;;;;;;20.90;33.72;102544.09;5073582;28;20397;-35
2022/03/26 17:10:46;;;;;;;0.20;0.20;;;;;;;20.90;34.00;102541.34;5087435;28;20047;-35
2022/03/26 17:13:12;;;;;;;0.20;0.20;;;;;;;20.90;34.00;102550.47;5087243;28;20475;-34
2022/03/26 17:15:39;;;;;;;0.13;0.13;;;;;;;20.90;33.79;102541.34;5110830;28;20085;-34
2022/03/26 17:18:06;;;;;;;0.10;0.10;;;;;;;20.90;33.91;102546.88;5108198;28;20040;-34
2022/03/26 17:20:32;;;;;;;0.20;0.20;;;;;;;20.90;33.84;102544.09;5106397;28;20048;-33
2022/03/26 17:22:57;;;;;;;0.20;0.20;;;;;;;20.90;33.99;102546.88;5106736;28;20035;-32
2022/03/26 17:25:23;;;;;;;0.20;0.20;;;;;;;20.89;33.89;102542.41;5109778;28;20043;-37
2022/03/26 17:27:49;;;;;;;0.20;0.20;;;;;;;20.90;33.83;102555.19;5089358;28;20040;-37
2022/03/26 17:30:14;;;;;;;0.17;0.17;;;;;;;20.90;33.76;102555.19;5105204;28;20539;-34
2022/03/26 17:32:42;;;;;;;0.20;0.20;;;;;;;20.90;33.91;102550.47;5106259;28;20091;-35
2022/03/26 17:35:08;;;;;;;0.20;0.20;;;;;;;20.89;33.94;102554.31;5096476;28;20100;-34
2022/03/26 17:37:34;;;;;;;0.20;0.20;;;;;;;20.91;33.72;102565.16;5104608;28;20104;-35
2022/03/26 17:40:01;;;;;;;0.20;0.20;;;;;;;20.90;33.94;102558.78;5099949;28;20067;-37
2022/03/26 17:42:26;;;;;;;0.20;0.20;;;;;;;20.91;33.78;102556.84;5091028;28;20055;-33
2022/03/26 17:44:52;;;;;;;0.20;0.20;;;;;;;20.89;34.03;102554.31;5098040;28;20390;-34
2022/03/26 17:47:17;;;;;;;0.20;0.20;;;;;;;20.90;33.87;102560.72;5098551;28;20047;-33